Time;durP1;ratioP1;P1;durP2;ratioP2;P2;SDS_P1;SDS_P2;PMS_P1;PMS_P2;Temp;Humidity;BMP_temperature;BMP_pressure;BME280_temperature;BME280_humidity;BME280_pressure;Samples;Min_cycle;Max_cycle;Signal;HPM_P1;HPM_P2
2023/09/22 00:12:21;;;;;;;;;;;;;;;;;;;;;
2023/09/22 00:32:11;;;;;;;0.40;0.40;;;16.70;99.90;;;;;;5845950;23;20039;-95
2023/09/22 00:34:38;;;;;;;0.20;0.20;;;16.70;99.90;;;;;;4957164;28;20122;-94
2023/09/22 00:37:07;;;;;;;5.38;0.30;;;16.70;99.90;;;;;;4945281;28;20101;-95
2023/09/22 00:39:32;;;;;;;0.70;0.40;;;16.70;99.90;;;;;;4942299;28;20107;-94
2023/09/22 00:42:01;;;;;;;0.17;0.17;;;16.70;99.90;;;;;;4946891;28;20493;-95
2023/09/22 00:44:30;;;;;;;2.03;0.57;;;16.70;99.90;;;;;;4949779;28;20081;-95
2023/09/22 00:47:17;;;;;;;0.13;0.13;;;16.80;99.90;;;;;;4946178;28;20527;-95
2023/09/22 00:49:45;;;;;;;0.13;0.13;;;16.60;99.90;;;;;;4947533;28;20034;-94
2023/09/22 00:52:12;;;;;;;0.10;0.10;;;16.60;99.90;;;;;;4946917;28;20469;-94
2023/09/22 00:54:38;;;;;;;0.10;0.10;;;16.50;99.90;;;;;;4952060;28;20407;-95
2023/09/22 00:57:04;;;;;;;0.30;0.30;;;16.50;99.90;;;;;;4957230;28;20268;-95
2023/09/22 00:59:45;;;;;;;0.10;0.10;;;16.40;99.90;;;;;;4955452;28;20126;-95
2023/09/22 01:02:13;;;;;;;0.10;0.10;;;16.30;99.90;;;;;;4953233;28;20099;-95
2023/09/22 01:04:39;;;;;;;1.55;0.57;;;16.20;99.90;;;;;;4950773;28;20317;-94
2023/09/22 01:07:07;;;;;;;0.20;0.20;;;16.00;99.90;;;;;;4957630;28;20019;-95
2023/09/22 01:09:33;;;;;;;0.20;0.20;;;16.10;99.90;;;;;;4950373;28;20027;-93
2023/09/22 01:11:59;;;;;;;0.17;0.17;;;15.90;99.90;;;;;;4952853;28;20441;-95
2023/09/22 01:14:27;;;;;;;0.20;0.20;;;16.00;99.90;;;;;;4950783;28;20027;-94
2023/09/22 01:16:58;;;;;;;0.30;0.30;;;15.90;99.90;;;;;;4946045;28;20037;-95
2023/09/22 01:19:25;;;;;;;0.13;0.13;;;15.90;99.90;;;;;;4964879;28;20038;-93
2023/09/22 01:21:50;;;;;;;0.20;0.20;;;15.90;99.90;;;;;;4952901;28;20605;-94
2023/09/22 01:24:58;;;;;;;0.20;0.20;;;15.90;99.90;;;;;;4949392;28;20022;-96
2023/09/22 01:27:28;;;;;;;0.20;0.20;;;15.80;99.90;;;;;;4961665;28;20035;-93
2023/09/22 01:30:05;;;;;;;0.82;0.28;;;15.80;99.90;;;;;;4950830;28;20106;-94
2023/09/22 01:32:31;;;;;;;0.50;0.50;;;15.90;99.90;;;;;;4969112;28;20046;-95
2023/09/22 01:34:59;;;;;;;0.38;0.30;;;15.90;99.90;;;;;;4949939;28;20649;-93
2023/09/22 01:37:32;;;;;;;0.10;0.10;;;15.90;99.90;;;;;;4955026;28;20062;-92
2023/09/22 01:40:01;;;;;;;0.10;0.10;;;15.80;99.90;;;;;;4945806;28;20026;-94
2023/09/22 01:42:32;;;;;;;0.20;0.20;;;15.80;99.90;;;;;;4949790;28;20034;-93
2023/09/22 01:44:57;;;;;;;0.20;0.20;;;15.90;99.90;;;;;;4949188;28;20090;-93
2023/09/22 01:47:26;;;;;;;0.80;0.77;;;15.80;99.90;;;;;;4951953;28;20098;-94
2023/09/22 01:50:23;;;;;;;0.15;0.15;;;15.70;99.90;;;;;;4969839;28;20019;-93
2023/09/22 01:56:21;;;;;;;0.28;0.28;;;15.80;99.90;;;;;;4960669;28;20549;-93
2023/09/22 01:58:51;;;;;;;3.42;0.22;;;15.70;99.90;;;;;;4949927;28;20035;-93
2023/09/22 02:01:40;;;;;;;0.10;0.10;;;15.70;99.90;;;;;;4945926;28;20149;-93
2023/09/22 02:04:23;;;;;;;0.10;0.10;;;15.70;99.90;;;;;;4947846;28;20019;-92
2023/09/22 02:06:49;;;;;;;;;;;15.60;99.90;;;;;;4941210;28;20034;-94
2023/09/22 02:10:00;;;;;;;;;;;;;;;;;;;;;
2023/09/22 02:13:09;;;;;;;0.08;0.08;;;15.70;99.90;;;;;;4950727;28;20042;-91
2023/09/22 02:15:54;;;;;;;0.10;0.10;;;15.70;99.90;;;;;;4943696;28;20034;-91
2023/09/22 02:18:26;;;;;;;0.22;0.22;;;15.70;99.90;;;;;;4946991;28;20035;-91
2023/09/22 02:21:29;;;;;;;0.10;0.10;;;15.80;99.90;;;;;;4949590;28;20169;-91
2023/09/22 02:24:07;;;;;;;0.35;0.35;;;15.80;99.90;;;;;;4922283;28;20126;-90
2023/09/22 02:26:51;;;;;;;0.20;0.20;;;15.80;99.90;;;;;;4959035;28;20042;-91
2023/09/22 02:29:30;;;;;;;0.32;0.32;;;15.80;99.90;;;;;;4948461;28;20131;-90
2023/09/22 02:32:09;;;;;;;0.30;0.30;;;15.80;99.90;;;;;;4946121;28;20023;-90
2023/09/22 02:34:39;;;;;;;0.10;0.10;;;15.80;99.90;;;;;;4951114;28;20049;-90
2023/09/22 02:37:05;;;;;;;0.30;0.30;;;15.80;99.90;;;;;;4943052;28;20435;-90
2023/09/22 02:39:41;;;;;;;0.10;0.10;;;15.90;99.90;;;;;;4949735;28;20047;-90
2023/09/22 02:42:22;;;;;;;0.47;0.47;;;15.90;99.90;;;;;;4960606;28;20048;-90
2023/09/22 02:44:50;;;;;;;0.20;0.20;;;16.00;99.90;;;;;;4951584;28;20026;-90
2023/09/22 02:47:19;;;;;;;0.10;0.10;;;15.90;99.90;;;;;;4963768;28;20394;-90
2023/09/22 02:49:48;;;;;;;0.30;0.30;;;16.00;99.90;;;;;;4950301;28;20039;-89
2023/09/22 02:52:16;;;;;;;0.10;0.10;;;15.90;99.90;;;;;;4954779;28;20043;-91
2023/09/22 02:54:46;;;;;;;0.10;0.10;;;16.00;99.90;;;;;;4962283;28;20031;-90
2023/09/22 02:57:16;;;;;;;0.30;0.25;;;16.10;99.90;;;;;;4949710;28;20026;-91
2023/09/22 02:59:44;;;;;;;0.10;0.10;;;16.10;99.90;;;;;;4965945;28;20032;-90
2023/09/22 03:02:25;;;;;;;0.57;0.57;;;16.00;99.90;;;;;;4947728;28;20464;-90
2023/09/22 03:04:54;;;;;;;0.10;0.10;;;16.10;99.90;;;;;;4958083;28;20034;-90
2023/09/22 03:07:20;;;;;;;0.88;0.45;;;16.10;99.90;;;;;;4963016;28;20031;-90
2023/09/22 03:09:53;;;;;;;0.85;0.85;;;16.20;99.90;;;;;;4945785;28;20038;-91
2023/09/22 03:12:22;;;;;;;0.08;0.08;;;16.10;99.90;;;;;;4947701;28;20146;-91
2023/09/22 03:14:51;;;;;;;0.40;0.40;;;16.10;99.90;;;;;;4944907;28;20031;-90
2023/09/22 03:17:24;;;;;;;0.30;0.30;;;16.20;99.90;;;;;;4948664;28;20039;-90
2023/09/22 03:19:55;;;;;;;0.25;0.20;;;16.20;99.90;;;;;;4962424;28;20483;-90
2023/09/22 03:22:29;;;;;;;0.10;0.10;;;16.20;99.90;;;;;;4947297;28;20034;-90
2023/09/22 03:24:55;;;;;;;0.10;0.10;;;16.30;99.90;;;;;;4944331;28;20515;-91
2023/09/22 03:27:21;;;;;;;0.10;0.10;;;16.30;99.90;;;;;;4948810;28;20039;-90
2023/09/22 03:29:55;;;;;;;0.10;0.10;;;16.30;99.90;;;;;;4960805;28;20069;-91
2023/09/22 03:32:21;;;;;;;0.10;0.10;;;16.30;99.90;;;;;;4946946;28;20097;-90
2023/09/22 03:34:48;;;;;;;0.10;0.10;;;16.10;99.90;;;;;;4947494;28;20019;-90
2023/09/22 03:37:14;;;;;;;0.10;0.10;;;16.10;99.90;;;;;;4944588;28;20026;-89
2023/09/22 03:39:40;;;;;;;0.10;0.10;;;16.10;99.90;;;;;;4948223;28;20027;-88
2023/09/22 03:42:07;;;;;;;0.30;0.30;;;16.20;99.90;;;;;;4953695;28;20415;-88
2023/09/22 03:44:34;;;;;;;0.32;0.25;;;16.20;99.90;;;;;;4957708;28;20118;-89
2023/09/22 03:46:59;;;;;;;0.10;0.10;;;16.30;99.90;;;;;;4948274;28;20043;-89
2023/09/22 03:49:26;;;;;;;0.20;0.20;;;16.30;99.90;;;;;;4950403;28;20038;-89
2023/09/22 03:51:51;;;;;;;0.20;0.20;;;16.30;99.90;;;;;;4949744;28;20250;-89
2023/09/22 03:54:17;;;;;;;0.10;0.10;;;16.30;99.90;;;;;;4950444;28;20081;-89
2023/09/22 03:56:42;;;;;;;0.45;0.22;;;16.30;99.90;;;;;;4949686;28;20023;-90
2023/09/22 03:59:09;;;;;;;0.15;0.15;;;16.20;99.90;;;;;;4946847;28;20422;-89
2023/09/22 04:01:35;;;;;;;0.10;0.10;;;16.30;99.90;;;;;;4967395;28;20030;-89
2023/09/22 04:04:03;;;;;;;0.43;0.43;;;16.10;99.90;;;;;;4948238;28;20030;-89
2023/09/22 04:06:30;;;;;;;0.20;0.20;;;16.10;99.90;;;;;;4965535;28;20025;-93
2023/09/22 04:08:56;;;;;;;0.10;0.10;;;16.20;99.90;;;;;;4947999;28;20057;-91
2023/09/22 04:11:22;;;;;;;0.10;0.10;;;16.20;99.90;;;;;;4964779;28;20055;-92
2023/09/22 04:13:50;;;;;;;0.20;0.20;;;16.20;99.90;;;;;;4951339;28;20318;-91
2023/09/22 04:16:16;;;;;;;0.10;0.10;;;16.20;99.90;;;;;;4948930;28;20038;-90
2023/09/22 04:18:41;;;;;;;0.40;0.40;;;16.20;99.90;;;;;;4964293;28;20193;-93
2023/09/22 04:21:09;;;;;;;0.10;0.10;;;16.20;99.90;;;;;;4948698;28;20027;-92
2023/09/22 04:23:34;;;;;;;0.10;0.10;;;16.20;99.90;;;;;;4971740;28;20033;-91
2023/09/22 04:26:09;;;;;;;0.00;0.00;;;16.20;99.90;;;;;;4972187;28;20019;-90
2023/09/22 04:28:35;;;;;;;0.60;0.20;;;16.20;99.90;;;;;;4960728;28;20022;-92
2023/09/22 04:31:01;;;;;;;0.13;0.13;;;16.10;99.90;;;;;;4966855;28;20513;-91
2023/09/22 04:33:26;;;;;;;0.10;0.10;;;16.10;99.90;;;;;;4946859;28;20158;-92
2023/09/22 04:35:52;;;;;;;0.10;0.10;;;16.20;99.90;;;;;;4947989;28;20394;-92
2023/09/22 04:38:18;;;;;;;0.10;0.10;;;16.20;99.90;;;;;;4947498;28;20037;-90
2023/09/22 04:40:45;;;;;;;0.10;0.10;;;16.20;99.90;;;;;;4949468;28;20070;-89
2023/09/22 04:43:12;;;;;;;0.15;0.15;;;16.20;99.90;;;;;;4964596;28;20495;-89
2023/09/22 04:45:42;;;;;;;0.10;0.10;;;16.10;99.90;;;;;;4948955;28;20102;-89
2023/09/22 04:48:08;;;;;;;0.05;0.05;;;16.10;99.90;;;;;;4949925;28;20074;-89
2023/09/22 04:50:34;;;;;;;0.10;0.10;;;16.10;99.90;;;;;;5079386;23;20058;-90
2023/09/22 04:53:00;;;;;;;0.10;0.10;;;16.10;99.90;;;;;;4935585;28;20019;-89
2023/09/22 04:55:29;;;;;;;0.10;0.10;;;16.00;99.90;;;;;;4936791;28;20130;-90
2023/09/22 04:57:56;;;;;;;0.10;0.10;;;16.00;99.90;;;;;;4935620;28;20042;-89
2023/09/22 05:00:23;;;;;;;0.10;0.10;;;15.90;99.90;;;;;;4953834;28;20644;-88
2023/09/22 05:02:49;;;;;;;0.10;0.10;;;16.00;99.90;;;;;;4929930;28;20032;-89
2023/09/22 05:05:18;;;;;;;0.10;0.10;;;15.90;99.90;;;;;;4950509;28;20106;-90
2023/09/22 05:07:47;;;;;;;0.10;0.10;;;15.90;99.90;;;;;;4954669;28;20023;-88
2023/09/22 05:10:13;;;;;;;0.10;0.10;;;15.90;99.90;;;;;;4950292;28;20035;-89
2023/09/22 05:12:39;;;;;;;0.10;0.10;;;15.80;99.90;;;;;;4938244;28;20027;-90
2023/09/22 05:15:06;;;;;;;0.10;0.10;;;15.70;99.90;;;;;;4934963;28;20178;-90
2023/09/22 05:17:32;;;;;;;0.22;0.20;;;15.80;99.90;;;;;;4936635;28;20526;-88
2023/09/22 05:19:58;;;;;;;0.10;0.10;;;15.80;99.90;;;;;;4937589;28;20035;-88
2023/09/22 05:22:24;;;;;;;0.35;0.35;;;15.80;99.90;;;;;;4934927;28;20027;-90
2023/09/22 05:24:50;;;;;;;0.05;0.05;;;15.90;99.90;;;;;;4939084;28;20054;-90
2023/09/22 05:27:16;;;;;;;0.40;0.40;;;15.90;99.90;;;;;;4939195;28;20024;-93
2023/09/22 05:29:42;;;;;;;0.05;0.05;;;15.90;99.90;;;;;;4944209;28;20027;-93
2023/09/22 05:32:08;;;;;;;0.10;0.10;;;15.80;99.90;;;;;;4941892;28;20031;-93
2023/09/22 05:34:34;;;;;;;0.10;0.10;;;15.80;99.90;;;;;;4939439;28;20051;-92
2023/09/22 05:37:02;;;;;;;0.10;0.10;;;15.80;99.90;;;;;;4972146;28;20293;-92
2023/09/22 05:39:28;;;;;;;0.10;0.10;;;15.90;99.90;;;;;;4940427;28;20031;-92
2023/09/22 05:41:53;;;;;;;0.10;0.10;;;15.90;99.90;;;;;;4934202;28;20538;-92
2023/09/22 05:44:19;;;;;;;0.10;0.10;;;15.80;99.90;;;;;;4940472;28;20587;-92
2023/09/22 05:46:45;;;;;;;0.00;0.00;;;15.80;99.90;;;;;;4944805;28;20334;-93
2023/09/22 05:49:15;;;;;;;0.10;0.10;;;15.80;99.90;;;;;;4943052;28;20027;-92
2023/09/22 05:51:41;;;;;;;0.85;0.30;;;15.80;99.90;;;;;;4944269;28;20046;-92
2023/09/22 05:54:07;;;;;;;0.00;0.00;;;15.80;99.90;;;;;;4959679;28;20090;-92
2023/09/22 05:56:34;;;;;;;0.10;0.10;;;15.70;99.90;;;;;;4938099;28;20043;-91
2023/09/22 05:59:00;;;;;;;0.10;0.10;;;15.60;99.90;;;;;;4942064;28;20110;-91
2023/09/22 06:01:27;;;;;;;0.10;0.10;;;15.70;99.90;;;;;;4958753;28;20122;-93
2023/09/22 06:03:53;;;;;;;0.10;0.10;;;15.70;99.90;;;;;;4942933;28;20031;-92
2023/09/22 06:06:19;;;;;;;0.13;0.10;;;15.50;99.90;;;;;;4957953;28;20128;-93
2023/09/22 06:08:46;;;;;;;0.13;0.10;;;15.60;99.90;;;;;;4945025;28;20027;-90
2023/09/22 06:11:13;;;;;;;0.30;0.30;;;15.60;99.90;;;;;;4935595;28;20058;-89
2023/09/22 06:13:39;;;;;;;0.10;0.10;;;15.50;99.90;;;;;;4945506;28;20023;-89
2023/09/22 06:16:05;;;;;;;0.20;0.20;;;15.70;99.90;;;;;;4938849;28;20023;-90
2023/09/22 06:18:31;;;;;;;0.20;0.20;;;15.60;99.90;;;;;;4946177;28;20019;-90
2023/09/22 06:20:59;;;;;;;0.10;0.10;;;15.60;99.90;;;;;;4940047;28;20038;-90
2023/09/22 06:23:27;;;;;;;0.10;0.10;;;15.60;99.90;;;;;;4945071;28;20019;-90
2023/09/22 06:25:56;;;;;;;0.10;0.10;;;15.60;99.90;;;;;;4962194;28;20109;-90
2023/09/22 06:28:25;;;;;;;0.10;0.10;;;15.60;99.90;;;;;;4959181;28;20027;-90
2023/09/22 06:30:52;;;;;;;0.35;0.32;;;15.70;99.90;;;;;;4936100;28;20063;-90
2023/09/22 06:33:18;;;;;;;0.10;0.10;;;15.80;99.90;;;;;;4942149;28;20027;-91
2023/09/22 06:35:46;;;;;;;0.10;0.10;;;15.80;99.90;;;;;;4944577;28;20125;-90
2023/09/22 06:38:12;;;;;;;0.10;0.10;;;15.70;99.90;;;;;;4940945;28;20110;-89
2023/09/22 06:40:39;;;;;;;0.00;0.00;;;15.80;99.90;;;;;;4945935;28;20550;-89
2023/09/22 06:43:05;;;;;;;1.27;0.25;;;15.80;99.90;;;;;;4941256;28;20023;-90
2023/09/22 06:45:38;;;;;;;0.10;0.10;;;15.80;99.90;;;;;;4943584;28;20031;-89
2023/09/22 06:48:05;;;;;;;0.85;0.85;;;15.60;99.90;;;;;;4957560;28;20388;-89
2023/09/22 06:50:37;;;;;;;0.10;0.10;;;15.70;99.90;;;;;;4940806;28;20031;-89
2023/09/22 06:53:03;;;;;;;0.13;0.13;;;15.70;99.90;;;;;;4935807;28;20102;-92
2023/09/22 06:55:32;;;;;;;0.10;0.10;;;15.70;99.90;;;;;;4944094;28;20122;-93
2023/09/22 06:58:00;;;;;;;0.10;0.10;;;15.70;99.90;;;;;;4940250;28;20177;-93
2023/09/22 07:00:28;;;;;;;0.10;0.10;;;15.70;99.90;;;;;;4941962;28;20055;-92
2023/09/22 07:03:00;;;;;;;0.10;0.10;;;15.60;99.90;;;;;;4966344;28;20081;-92
2023/09/22 07:05:25;;;;;;;0.10;0.10;;;15.70;99.90;;;;;;4945350;28;20031;-92
2023/09/22 07:07:53;;;;;;;0.00;0.00;;;15.80;99.90;;;;;;4942348;28;20027;-93
2023/09/22 07:10:19;;;;;;;0.55;0.55;;;15.80;99.90;;;;;;4963074;28;20089;-90
2023/09/22 07:12:45;;;;;;;0.05;0.05;;;15.90;99.90;;;;;;4949414;28;20557;-91
2023/09/22 07:15:11;;;;;;;1.23;0.40;;;15.90;99.90;;;;;;4946358;28;20047;-89
2023/09/22 07:17:37;;;;;;;0.05;0.05;;;15.80;99.90;;;;;;4964301;28;20055;-90
2023/09/22 07:20:04;;;;;;;0.10;0.10;;;16.00;99.90;;;;;;4943800;28;20023;-88
2023/09/22 07:22:32;;;;;;;0.10;0.10;;;16.00;99.90;;;;;;4945330;28;20023;-90
2023/09/22 07:25:04;;;;;;;0.10;0.10;;;15.90;99.90;;;;;;4962024;28;20035;-91
2023/09/22 07:27:39;;;;;;;1.88;0.63;;;15.90;99.90;;;;;;4945262;28;20024;-90
2023/09/22 07:30:11;;;;;;;0.55;0.55;;;16.00;99.90;;;;;;4942353;28;20019;-89
2023/09/22 07:32:40;;;;;;;0.00;0.00;;;16.00;99.90;;;;;;4939849;28;20027;-88
2023/09/22 07:35:07;;;;;;;0.10;0.10;;;16.10;99.90;;;;;;4961966;28;20153;-87
2023/09/22 07:37:33;;;;;;;0.10;0.10;;;16.00;99.90;;;;;;4946076;28;20223;-88
2023/09/22 07:39:58;;;;;;;0.10;0.10;;;16.10;99.90;;;;;;4947271;28;20099;-87
2023/09/22 07:42:27;;;;;;;0.10;0.10;;;16.00;99.90;;;;;;4953515;28;20144;-87
2023/09/22 07:44:52;;;;;;;0.10;0.10;;;16.10;99.90;;;;;;4967392;28;20115;-88
2023/09/22 07:47:18;;;;;;;0.45;0.40;;;16.20;99.90;;;;;;4945573;28;20126;-88
2023/09/22 07:49:44;;;;;;;0.10;0.10;;;16.20;99.90;;;;;;4947862;28;20026;-88
2023/09/22 07:52:10;;;;;;;0.10;0.10;;;16.30;99.90;;;;;;4945238;28;20031;-88
2023/09/22 07:54:39;;;;;;;0.10;0.10;;;16.30;99.90;;;;;;4942669;28;20387;-88
2023/09/22 07:57:07;;;;;;;0.10;0.10;;;16.30;99.90;;;;;;4960789;28;20047;-88
2023/09/22 07:59:34;;;;;;;0.25;0.25;;;16.30;99.90;;;;;;4947438;28;20316;-87
2023/09/22 08:01:59;;;;;;;0.10;0.10;;;16.30;99.90;;;;;;4960433;28;20035;-88
2023/09/22 08:04:26;;;;;;;0.10;0.10;;;16.30;99.90;;;;;;4945397;28;20026;-88
2023/09/22 08:06:52;;;;;;;0.90;0.47;;;16.40;99.90;;;;;;4938009;28;20027;-87
2023/09/22 08:09:18;;;;;;;1.25;0.55;;;16.40;99.90;;;;;;4943968;28;20019;-87
2023/09/22 08:11:48;;;;;;;0.10;0.10;;;16.40;99.90;;;;;;4944146;28;20199;-87
2023/09/22 08:14:14;;;;;;;0.10;0.10;;;16.40;99.90;;;;;;4962716;28;20023;-88
2023/09/22 08:16:40;;;;;;;0.00;0.00;;;16.40;99.90;;;;;;4948142;28;20034;-87
2023/09/22 08:19:12;;;;;;;0.10;0.10;;;16.40;99.90;;;;;;4943371;28;20082;-85
2023/09/22 08:21:38;;;;;;;0.10;0.10;;;16.40;99.90;;;;;;4945390;28;20035;-87
2023/09/22 08:24:05;;;;;;;0.10;0.10;;;16.50;99.90;;;;;;4964567;28;20467;-88
2023/09/22 08:26:31;;;;;;;0.10;0.10;;;16.60;99.90;;;;;;4943955;28;20483;-87
2023/09/22 08:28:57;;;;;;;0.10;0.10;;;16.60;99.90;;;;;;4942933;28;20082;-87
2023/09/22 08:31:25;;;;;;;0.10;0.10;;;16.60;99.90;;;;;;4941552;28;20027;-88
2023/09/22 08:33:51;;;;;;;0.08;0.08;;;16.70;99.90;;;;;;4962580;28;20023;-86
2023/09/22 08:36:17;;;;;;;0.10;0.10;;;16.80;99.90;;;;;;4961544;28;20027;-86
2023/09/22 08:38:42;;;;;;;0.20;0.20;;;16.80;99.90;;;;;;4962547;28;20037;-85
2023/09/22 08:41:11;;;;;;;0.10;0.10;;;16.90;99.90;;;;;;4936113;28;20031;-91
2023/09/22 08:43:36;;;;;;;0.20;0.20;;;16.90;99.90;;;;;;4947441;28;20027;-91
2023/09/22 08:46:02;;;;;;;0.10;0.10;;;17.00;99.90;;;;;;4964579;28;20116;-90
2023/09/22 08:48:28;;;;;;;0.10;0.10;;;17.00;99.90;;;;;;4944389;28;20046;-90
2023/09/22 08:50:54;;;;;;;0.10;0.10;;;17.00;99.90;;;;;;4944562;28;20070;-90
2023/09/22 08:53:20;;;;;;;0.10;0.10;;;17.00;99.90;;;;;;4941886;28;20114;-91
2023/09/22 08:55:49;;;;;;;0.22;0.22;;;17.10;99.90;;;;;;4962757;28;20468;-89
2023/09/22 08:58:17;;;;;;;0.10;0.10;;;17.10;99.90;;;;;;4944400;28;20061;-90
2023/09/22 09:00:47;;;;;;;0.10;0.10;;;17.20;99.90;;;;;;4944464;28;20463;-91
2023/09/22 09:03:14;;;;;;;0.10;0.10;;;17.40;99.90;;;;;;4963644;28;20118;-90
2023/09/22 09:05:39;;;;;;;0.10;0.10;;;17.60;99.90;;;;;;4947373;28;20043;-90
2023/09/22 09:08:24;;;;;;;0.10;0.10;;;17.70;99.90;;;;;;4943281;28;20031;-89
2023/09/22 09:10:50;;;;;;;0.10;0.10;;;17.80;99.90;;;;;;4959984;28;20551;-89
2023/09/22 09:13:18;;;;;;;0.10;0.10;;;18.00;99.90;;;;;;4943712;28;20106;-90
2023/09/22 09:15:47;;;;;;;0.20;0.20;;;18.10;99.90;;;;;;4947244;28;20027;-90
2023/09/22 09:18:20;;;;;;;0.10;0.10;;;18.20;99.90;;;;;;4946110;28;20034;-89
2023/09/22 09:21:05;;;;;;;0.20;0.20;;;18.40;99.90;;;;;;4961984;28;20106;-86
2023/09/22 09:23:32;;;;;;;0.20;0.20;;;18.50;99.90;;;;;;4956155;28;20129;-86
2023/09/22 09:25:58;;;;;;;0.20;0.20;;;18.70;99.90;;;;;;4944412;28;20368;-86
2023/09/22 09:28:24;;;;;;;0.10;0.10;;;18.90;99.90;;;;;;4947201;28;20035;-91
2023/09/22 09:30:52;;;;;;;0.20;0.20;;;19.10;99.90;;;;;;4943895;28;20524;-86
2023/09/22 09:33:23;;;;;;;0.45;0.45;;;19.20;99.90;;;;;;4960792;28;20059;-90
2023/09/22 09:35:50;;;;;;;0.20;0.20;;;19.20;99.90;;;;;;4949567;28;20506;-90
2023/09/22 09:38:20;;;;;;;0.20;0.20;;;19.30;99.90;;;;;;4949386;28;20106;-91
2023/09/22 09:40:46;;;;;;;0.20;0.20;;;19.20;99.90;;;;;;4951128;28;20030;-87
2023/09/22 09:43:13;;;;;;;0.63;0.63;;;19.20;99.90;;;;;;4945838;28;20550;-87
2023/09/22 09:45:49;;;;;;;0.20;0.20;;;19.10;99.90;;;;;;4947868;28;20027;-87
2023/09/22 09:48:19;;;;;;;0.20;0.20;;;18.90;99.90;;;;;;4960929;28;20454;-86
2023/09/22 09:50:50;;;;;;;0.20;0.20;;;18.80;99.90;;;;;;4947622;28;20041;-92
2023/09/22 09:53:26;;;;;;;0.20;0.20;;;19.00;99.90;;;;;;4947254;28;20160;-94
2023/09/22 09:55:59;;;;;;;0.28;0.28;;;19.10;99.90;;;;;;5076806;23;20121;-88
2023/09/22 09:58:28;;;;;;;0.20;0.20;;;19.30;99.90;;;;;;4904824;29;20464;-87
2023/09/22 10:00:55;;;;;;;0.20;0.20;;;19.50;99.90;;;;;;4916122;29;20208;-87
2023/09/22 10:03:23;;;;;;;0.20;0.20;;;19.90;99.90;;;;;;4905783;29;21405;-88
2023/09/22 10:05:55;;;;;;;0.25;0.25;;;20.00;99.90;;;;;;4901348;29;20031;-87
2023/09/22 10:08:26;;;;;;;0.28;0.28;;;20.30;99.90;;;;;;4898413;29;20035;-87
2023/09/22 10:10:58;;;;;;;0.25;0.25;;;20.00;99.90;;;;;;4914730;29;20044;-90
2023/09/22 10:13:24;;;;;;;0.20;0.20;;;19.70;99.90;;;;;;4903683;29;20025;-88
2023/09/22 10:16:08;;;;;;;0.30;0.30;;;19.50;99.90;;;;;;4921938;28;20268;-89
2023/09/22 10:18:45;;;;;;;0.20;0.20;;;19.30;99.90;;;;;;4925800;29;20035;-86
2023/09/22 10:21:45;;;;;;;0.30;0.30;;;19.30;99.90;;;;;;4908730;29;20951;-85
2023/09/22 10:24:32;;;;;;;0.15;0.15;;;19.20;99.90;;;;;;4898014;29;20667;-85
2023/09/22 10:27:06;;;;;;;0.10;0.10;;;18.80;99.90;;;;;;4911955;29;20028;-86
2023/09/22 10:32:18;;;;;;;0.63;0.30;;;18.50;99.90;;;;;;4925348;29;20086;-92
2023/09/22 10:34:50;;;;;;;0.20;0.20;;;18.70;99.90;;;;;;4921061;29;20127;-90
2023/09/22 10:37:20;;;;;;;0.20;0.20;;;18.90;99.90;;;;;;4913579;29;20036;-89
2023/09/22 10:40:09;;;;;;;0.17;0.17;;;19.50;99.90;;;;;;4910766;29;20030;-90
2023/09/22 10:42:43;;;;;;;0.10;0.10;;;19.60;99.90;;;;;;4902643;29;20106;-85
2023/09/22 10:45:10;;;;;;;0.10;0.10;;;19.40;99.90;;;;;;4906519;29;20099;-88
2023/09/22 10:47:42;;;;;;;0.20;0.20;;;19.40;99.90;;;;;;4895993;29;20063;-90
2023/09/22 10:50:15;;;;;;;0.20;0.20;;;19.60;99.90;;;;;;4907072;29;20074;-90
2023/09/22 10:52:53;;;;;;;0.10;0.10;;;19.60;99.90;;;;;;4921810;29;20098;-86
2023/09/22 10:55:35;;;;;;;0.38;0.38;;;20.10;99.90;;;;;;4923651;29;20040;-86
2023/09/22 10:58:05;;;;;;;0.30;0.30;;;20.30;99.90;;;;;;4921793;29;20500;-86
2023/09/22 11:00:32;;;;;;;0.35;0.35;;;20.60;99.90;;;;;;4903870;29;20020;-86
2023/09/22 11:03:11;;;;;;;0.20;0.20;;;20.30;98.10;;;;;;4904785;29;20568;-85
2023/09/22 11:05:38;;;;;;;0.20;0.20;;;20.30;99.00;;;;;;5033779;23;20047;-91
2023/09/22 11:08:15;;;;;;;0.20;0.20;;;20.30;97.00;;;;;;4936668;28;20015;-86
2023/09/22 11:10:46;;;;;;;0.20;0.20;;;20.10;97.30;;;;;;4950330;28;20031;-91
2023/09/22 11:13:15;;;;;;;0.63;0.63;;;20.10;98.90;;;;;;4922163;29;20094;-89
2023/09/22 11:15:57;;;;;;;0.20;0.20;;;19.90;96.50;;;;;;4935402;28;20015;-86
2023/09/22 11:18:25;;;;;;;0.22;0.22;;;19.60;99.10;;;;;;4934776;28;20020;-85
2023/09/22 11:21:05;;;;;;;0.22;0.22;;;19.60;98.50;;;;;;4933501;28;20024;-85
2023/09/22 11:23:35;;;;;;;0.40;0.28;;;19.40;98.80;;;;;;4915624;29;20098;-87
2023/09/22 11:26:09;;;;;;;0.25;0.25;;;19.20;99.00;;;;;;4912849;29;20083;-84
2023/09/22 11:28:37;;;;;;;0.20;0.20;;;19.20;99.70;;;;;;4916723;29;20023;-83
2023/09/22 11:31:09;;;;;;;0.20;0.20;;;19.10;99.90;;;;;;4898223;29;20075;-83
2023/09/22 11:33:38;;;;;;;0.50;0.50;;;19.30;99.90;;;;;;4910248;29;20059;-85
2023/09/22 11:36:05;;;;;;;0.10;0.10;;;19.40;99.90;;;;;;4901683;29;20039;-90
2023/09/22 11:38:32;;;;;;;0.20;0.20;;;19.50;99.90;;;;;;4915709;29;20372;-86
2023/09/22 11:41:10;;;;;;;0.30;0.30;;;19.60;99.90;;;;;;4918372;29;20016;-86
2023/09/22 11:43:40;;;;;;;0.20;0.20;;;19.50;99.90;;;;;;4912079;29;20075;-90
2023/09/22 11:46:13;;;;;;;0.20;0.20;;;19.50;99.90;;;;;;4926891;29;20044;-90
2023/09/22 11:48:59;;;;;;;0.15;0.15;;;19.40;99.90;;;;;;4919856;29;20032;-86
2023/09/22 11:51:40;;;;;;;0.40;0.30;;;19.20;99.90;;;;;;4917904;29;20047;-86
2023/09/22 11:54:07;;;;;;;0.20;0.20;;;19.20;99.90;;;;;;4900268;29;20058;-92
2023/09/22 11:56:33;;;;;;;0.20;0.20;;;19.20;99.90;;;;;;4926062;29;20110;-86
2023/09/22 11:59:08;;;;;;;0.20;0.20;;;19.10;99.90;;;;;;4919633;29;20103;-86
2023/09/22 12:01:34;;;;;;;0.20;0.20;;;19.30;99.90;;;;;;4918438;29;20111;-86
2023/09/22 12:04:02;;;;;;;0.20;0.20;;;19.40;99.90;;;;;;4924749;29;20024;-90
2023/09/22 12:06:28;;;;;;;0.20;0.20;;;19.40;99.90;;;;;;5094569;23;20025;-85
2023/09/22 12:08:58;;;;;;;0.20;0.20;;;19.40;99.90;;;;;;4962818;28;20026;-85
2023/09/22 12:11:24;;;;;;;0.15;0.15;;;19.60;99.90;;;;;;4943470;28;20427;-85
2023/09/22 12:13:50;;;;;;;0.20;0.20;;;19.70;99.90;;;;;;4960727;28;20292;-90
2023/09/22 12:16:15;;;;;;;0.20;0.20;;;19.70;99.90;;;;;;4946117;28;20019;-90
2023/09/22 12:18:41;;;;;;;0.20;0.20;;;19.80;99.90;;;;;;4944388;28;20219;-88
2023/09/22 12:21:06;;;;;;;0.10;0.10;;;20.00;99.90;;;;;;4944591;28;20109;-87
2023/09/22 12:23:34;;;;;;;0.17;0.17;;;20.10;99.90;;;;;;4940301;28;20054;-92
2023/09/22 12:26:01;;;;;;;0.10;0.10;;;20.10;99.70;;;;;;4944092;28;20027;-91
2023/09/22 12:28:27;;;;;;;0.20;0.20;;;20.20;99.90;;;;;;4943717;28;20486;-91
2023/09/22 12:30:55;;;;;;;0.55;0.30;;;20.40;99.90;;;;;;4943237;28;20471;-92
2023/09/22 12:33:23;;;;;;;0.20;0.20;;;20.40;98.90;;;;;;4941291;28;20038;-91
2023/09/22 12:35:52;;;;;;;0.20;0.20;;;20.50;99.80;;;;;;4941452;28;20015;-90
2023/09/22 12:38:17;;;;;;;0.20;0.20;;;20.60;99.90;;;;;;4943283;28;20031;-91
2023/09/22 12:40:43;;;;;;;0.20;0.20;;;20.50;97.80;;;;;;4941605;28;20350;-89
2023/09/22 12:43:12;;;;;;;0.50;0.50;;;20.40;98.00;;;;;;4944650;28;20045;-90
2023/09/22 12:45:39;;;;;;;0.70;0.43;;;20.30;98.90;;;;;;4943683;28;20022;-91
2023/09/22 12:48:05;;;;;;;0.20;0.20;;;20.30;98.80;;;;;;4943548;28;20086;-91
2023/09/22 12:50:31;;;;;;;0.82;0.82;;;20.50;98.80;;;;;;4944426;28;20596;-91
2023/09/22 12:52:57;;;;;;;0.20;0.20;;;20.60;98.50;;;;;;4961498;28;20074;-91
2023/09/22 12:55:23;;;;;;;0.20;0.20;;;20.70;97.50;;;;;;4964013;28;20153;-91
2023/09/22 12:57:50;;;;;;;0.30;0.30;;;20.80;97.80;;;;;;4948123;28;20062;-92
2023/09/22 13:00:15;;;;;;;0.30;0.30;;;20.70;97.30;;;;;;4950868;28;20383;-91
2023/09/22 13:02:44;;;;;;;0.30;0.30;;;20.50;97.00;;;;;;4966205;28;20097;-90
2023/09/22 13:05:14;;;;;;;0.25;0.25;;;20.70;99.90;;;;;;4966310;28;20356;-90
2023/09/22 13:07:40;;;;;;;0.30;0.30;;;20.80;99.30;;;;;;4962945;28;20035;-90
2023/09/22 13:10:07;;;;;;;0.25;0.25;;;20.80;98.40;;;;;;4950937;28;20467;-90
2023/09/22 13:12:37;;;;;;;0.30;0.30;;;20.80;97.30;;;;;;4947692;28;20557;-92
2023/09/22 13:15:03;;;;;;;0.50;0.50;;;21.00;98.00;;;;;;4947254;28;20034;-91
2023/09/22 13:17:29;;;;;;;0.50;0.50;;;21.10;96.00;;;;;;4965647;28;20031;-91
2023/09/22 13:19:55;;;;;;;0.30;0.30;;;21.10;96.00;;;;;;4964853;28;20023;-89
2023/09/22 13:22:21;;;;;;;0.20;0.20;;;21.00;95.60;;;;;;4946899;28;20395;-91
2023/09/22 13:24:48;;;;;;;0.90;0.60;;;21.00;95.50;;;;;;4947385;28;20026;-91
2023/09/22 13:27:14;;;;;;;0.30;0.30;;;21.10;96.70;;;;;;4950128;28;20057;-91
2023/09/22 13:29:40;;;;;;;0.40;0.40;;;21.30;96.10;;;;;;4960363;28;20341;-90
2023/09/22 13:32:06;;;;;;;0.30;0.30;;;21.30;95.30;;;;;;4962705;28;20045;-92
2023/09/22 13:34:34;;;;;;;0.40;0.40;;;21.30;94.30;;;;;;4946904;28;20076;-91
2023/09/22 13:37:05;;;;;;;0.30;0.30;;;21.30;94.50;;;;;;4947476;28;20026;-92